createdAt,value
2023-03-13T00:01:34.657Z,15.00
2023-03-13T00:04:01.753Z,20.75
2023-03-13T00:06:34.137Z,22.47
2023-03-13T00:09:01.142Z,16.40
2023-03-13T00:11:27.923Z,22.15
2023-03-13T00:13:56.267Z,13.98
2023-03-13T00:16:23.287Z,14.98
2023-03-13T00:18:52.150Z,14.13
2023-03-13T00:21:20.723Z,18.40
2023-03-13T00:23:47.404Z,11.15
2023-03-13T00:26:17.055Z,12.40
2023-03-13T00:28:45.864Z,18.88
2023-03-13T00:31:22.022Z,15.70
2023-03-13T00:33:51.810Z,20.13
2023-03-13T00:36:24.060Z,17.98
2023-03-13T00:38:52.154Z,12.98
2023-03-13T00:41:21.964Z,16.10
2023-03-13T00:43:49.415Z,19.43
2023-03-13T00:46:19.036Z,14.63
2023-03-13T00:48:45.952Z,19.67
2023-03-13T00:51:14.259Z,12.07
2023-03-13T00:53:40.867Z,12.98
2023-03-13T00:56:10.395Z,15.37
2023-03-13T00:58:39.139Z,14.60
2023-03-13T01:01:11.048Z,20.92
2023-03-13T01:03:38.796Z,11.82
2023-03-13T01:06:08.786Z,19.42
2023-03-13T01:08:37.221Z,8.83
2023-03-13T01:11:09.973Z,16.38
2023-03-13T01:13:37.149Z,12.02
2023-03-13T01:16:10.253Z,11.20
2023-03-13T01:18:41.598Z,22.98
2023-03-13T01:21:08.653Z,10.47
2023-03-13T01:23:35.246Z,12.55
2023-03-13T01:26:03.969Z,10.43
2023-03-13T01:28:30.475Z,12.77
2023-03-13T01:30:57.009Z,12.40
2023-03-13T01:33:23.581Z,20.10
2023-03-13T01:35:50.424Z,9.43
2023-03-13T01:38:17.136Z,11.70
2023-03-13T01:40:46.420Z,12.98
2023-03-13T01:43:27.859Z,11.27
2023-03-13T01:45:59.076Z,14.57
2023-03-13T01:48:48.563Z,12.68
2023-03-13T01:51:26.005Z,8.45
2023-03-13T01:54:16.735Z,13.27
2023-03-13T01:56:46.092Z,8.45
2023-03-13T01:59:16.863Z,8.97
2023-03-13T02:01:45.786Z,8.02
2023-03-13T02:04:15.491Z,7.70
2023-03-13T02:06:45.249Z,9.02
2023-03-13T02:09:18.183Z,9.68
2023-03-13T02:12:03.119Z,9.60
2023-03-13T02:14:33.571Z,9.23
2023-03-13T02:17:01.195Z,11.95
2023-03-13T02:19:48.386Z,7.50
2023-03-13T02:22:50.531Z,9.35
2023-03-13T02:25:33.085Z,7.70
2023-03-13T02:28:11.030Z,6.65
2023-03-13T02:30:39.768Z,9.25
2023-03-13T02:33:06.283Z,6.75
2023-03-13T02:35:34.026Z,8.02
2023-03-13T02:38:03.880Z,9.77
2023-03-13T02:40:34.969Z,12.15
2023-03-13T02:43:08.126Z,6.93
2023-03-13T02:45:34.977Z,10.93
2023-03-13T02:48:01.432Z,10.50
2023-03-13T02:50:28.028Z,14.97
2023-03-13T02:52:59.935Z,12.55
2023-03-13T02:55:31.053Z,17.80
2023-03-13T02:57:57.562Z,11.32
2023-03-13T03:00:26.832Z,8.88
2023-03-13T03:02:54.256Z,17.03
2023-03-13T03:05:22.233Z,18.00
2023-03-13T03:07:49.775Z,14.65
2023-03-13T03:10:16.819Z,12.55
2023-03-13T03:12:43.534Z,12.80
2023-03-13T03:15:10.571Z,15.60
2023-03-13T03:17:37.144Z,17.77
2023-03-13T03:20:07.884Z,14.00
2023-03-13T03:22:34.738Z,15.32
2023-03-13T03:25:01.242Z,16.40
2023-03-13T03:27:27.644Z,14.73
2023-03-13T03:29:54.076Z,13.30
2023-03-13T03:32:21.138Z,17.58
2023-03-13T03:34:47.618Z,11.52
2023-03-13T03:37:14.068Z,14.98
2023-03-13T03:39:40.639Z,13.63
2023-03-13T03:42:07.126Z,17.50
2023-03-13T03:44:33.588Z,14.30
2023-03-13T03:47:00.091Z,11.98
2023-03-13T03:49:26.587Z,15.63
2023-03-13T03:51:53.784Z,12.30
2023-03-13T03:54:20.288Z,14.32
2023-03-13T03:56:46.755Z,12.20
2023-03-13T03:59:13.267Z,12.75
2023-03-13T04:01:40.587Z,11.43
2023-03-13T04:04:07.074Z,8.53
2023-03-13T04:06:33.562Z,9.18
2023-03-13T04:08:59.989Z,11.40
2023-03-13T04:11:26.468Z,9.80
2023-03-13T04:13:53.043Z,10.25
2023-03-13T04:16:19.794Z,9.50
2023-03-13T04:18:46.251Z,11.85
2023-03-13T04:21:12.764Z,11.27
2023-03-13T04:23:39.223Z,9.30
2023-03-13T04:26:05.668Z,13.55
2023-03-13T04:28:32.113Z,13.37
2023-03-13T04:30:58.586Z,8.63
2023-03-13T04:33:25.634Z,15.05
2023-03-13T04:35:52.156Z,11.35
2023-03-13T04:38:18.707Z,11.55
2023-03-13T04:40:46.796Z,11.50
2023-03-13T04:43:13.385Z,10.57
2023-03-13T04:45:39.894Z,11.20
2023-03-13T04:48:06.457Z,10.73
2023-03-13T04:50:32.923Z,11.00
2023-03-13T04:52:59.394Z,6.77
2023-03-13T04:55:25.879Z,11.50
2023-03-13T04:57:52.736Z,14.05
2023-03-13T05:00:19.466Z,14.10
2023-03-13T05:02:45.934Z,10.50
2023-03-13T05:05:12.446Z,7.53
2023-03-13T05:07:38.926Z,11.45
2023-03-13T05:10:05.621Z,11.82
2023-03-13T05:12:32.088Z,10.45
2023-03-13T05:14:58.601Z,9.25
2023-03-13T05:17:25.055Z,12.17
2023-03-13T05:19:51.556Z,11.68
2023-03-13T05:22:18.015Z,8.77
2023-03-13T05:24:44.432Z,11.18
2023-03-13T05:27:10.853Z,10.95
2023-03-13T05:29:37.341Z,8.13
2023-03-13T05:32:04.070Z,6.25
2023-03-13T05:34:30.517Z,9.00
2023-03-13T05:36:56.954Z,9.75
2023-03-13T05:39:23.511Z,5.43
2023-03-13T05:41:50.013Z,10.43
2023-03-13T05:44:16.498Z,9.00
2023-03-13T05:46:42.931Z,11.60
2023-03-13T05:49:09.428Z,11.70
2023-03-13T05:51:35.920Z,6.88
2023-03-13T05:54:02.367Z,5.60
2023-03-13T05:56:28.865Z,6.63
2023-03-13T05:58:55.442Z,9.20
2023-03-13T06:01:23.467Z,8.77
2023-03-13T06:03:50.005Z,11.57
2023-03-13T06:06:16.501Z,7.63
2023-03-13T06:08:42.929Z,7.30
2023-03-13T06:11:09.429Z,10.80
2023-03-13T06:13:35.897Z,8.50
2023-03-13T06:16:02.470Z,9.20
2023-03-13T06:18:29.236Z,5.87
2023-03-13T06:21:00.487Z,6.72
2023-03-13T06:23:27.733Z,10.30
2023-03-13T06:25:55.635Z,8.32
2023-03-13T06:28:22.241Z,6.57
2023-03-13T06:30:48.765Z,5.60
2023-03-13T06:33:15.393Z,8.88
2023-03-13T06:35:55.812Z,7.57
2023-03-13T06:38:24.797Z,9.57
2023-03-13T06:40:51.417Z,9.60
2023-03-13T06:43:17.901Z,6.27
2023-03-13T06:45:44.423Z,9.20
2023-03-13T06:48:10.997Z,7.10
2023-03-13T06:50:42.048Z,11.15
2023-03-13T06:53:15.901Z,8.60
2023-03-13T06:55:42.797Z,8.83
2023-03-13T06:58:14.034Z,6.93
2023-03-13T07:00:48.232Z,10.52
2023-03-13T07:03:14.840Z,12.30
2023-03-13T07:05:41.274Z,7.20
2023-03-13T07:08:07.674Z,6.80
2023-03-13T07:10:34.217Z,5.22
2023-03-13T07:13:00.687Z,7.13
2023-03-13T07:15:27.224Z,6.40
2023-03-13T07:17:56.322Z,6.53
2023-03-13T07:20:22.903Z,16.63
2023-03-13T07:22:53.452Z,9.50
2023-03-13T07:25:20.172Z,10.48
2023-03-13T07:27:46.585Z,7.00
2023-03-13T07:30:13.594Z,6.90
2023-03-13T07:32:40.107Z,10.73
2023-03-13T07:35:06.918Z,7.57
2023-03-13T07:37:33.356Z,8.43
2023-03-13T07:40:00.636Z,11.43
2023-03-13T07:42:27.072Z,8.32
2023-03-13T07:44:53.741Z,8.43
2023-03-13T07:47:20.237Z,7.75
2023-03-13T07:49:46.859Z,9.73
2023-03-13T07:52:13.943Z,11.23
2023-03-13T07:54:40.572Z,9.13
2023-03-13T07:57:06.946Z,9.63
2023-03-13T07:59:33.314Z,8.13
2023-03-13T08:01:59.887Z,10.80
2023-03-13T08:04:26.357Z,11.45
2023-03-13T08:06:54.552Z,9.77
2023-03-13T08:09:21.474Z,7.50
2023-03-13T08:11:48.891Z,8.02
2023-03-13T08:14:16.576Z,5.88
2023-03-13T08:16:43.111Z,4.72
2023-03-13T08:19:10.318Z,4.18
2023-03-13T08:21:38.142Z,6.93
2023-03-13T08:24:07.368Z,9.85
2023-03-13T08:26:36.717Z,7.45
2023-03-13T08:29:07.307Z,8.52
2023-03-13T08:31:45.972Z,10.98
2023-03-13T08:34:13.445Z,10.13
2023-03-13T08:36:41.603Z,8.60
2023-03-13T08:39:12.218Z,6.43
2023-03-13T08:41:40.721Z,12.05
2023-03-13T08:44:10.265Z,7.20
2023-03-13T08:46:37.218Z,8.37
2023-03-13T08:49:05.593Z,5.57
2023-03-13T08:51:32.384Z,5.10
2023-03-13T08:53:58.816Z,7.50
2023-03-13T08:56:30.573Z,4.15
2023-03-13T08:59:03.173Z,13.83
2023-03-13T09:01:34.388Z,4.85
2023-03-13T09:04:03.985Z,4.80
2023-03-13T09:06:31.546Z,9.70
2023-03-13T09:08:58.485Z,6.68
2023-03-13T09:11:27.643Z,5.57
2023-03-13T09:13:55.611Z,6.20
2023-03-13T09:16:24.065Z,8.07
2023-03-13T09:18:51.814Z,7.15
2023-03-13T09:21:27.577Z,4.55
2023-03-13T09:23:54.343Z,10.73
2023-03-13T09:26:23.366Z,5.35
2023-03-13T09:28:53.817Z,5.88
2023-03-13T09:31:26.101Z,6.93
2023-03-13T09:33:53.183Z,7.93
2023-03-13T09:36:22.387Z,5.30
2023-03-13T09:38:53.939Z,6.18
2023-03-13T09:41:43.162Z,4.20
2023-03-13T09:44:38.401Z,5.03
2023-03-13T09:47:20.100Z,7.13
2023-03-13T09:49:54.244Z,7.10
2023-03-13T09:52:41.039Z,4.70
2023-03-13T09:55:22.833Z,4.68
2023-03-13T09:57:54.397Z,4.72
2023-03-13T10:00:36.334Z,2.35
2023-03-13T10:03:12.753Z,7.43
2023-03-13T10:05:58.456Z,3.72
2023-03-13T10:08:27.035Z,5.38
2023-03-13T10:11:09.856Z,2.58
2023-03-13T10:13:47.718Z,5.38
2023-03-13T10:16:38.827Z,3.73
2023-03-13T10:19:17.260Z,7.78
2023-03-13T10:21:47.671Z,7.45
2023-03-13T10:24:37.763Z,2.75
2023-03-13T10:27:04.187Z,3.22
2023-03-13T10:29:31.725Z,4.23
2023-03-13T10:32:01.165Z,4.65
2023-03-13T10:34:44.683Z,2.38
2023-03-13T10:37:15.117Z,3.63
2023-03-13T10:39:41.633Z,3.60
2023-03-13T10:42:20.936Z,3.80
2023-03-13T10:44:47.518Z,3.40
2023-03-13T10:47:15.395Z,5.13
2023-03-13T10:49:56.790Z,5.07
2023-03-13T10:52:35.823Z,4.10
2023-03-13T10:55:06.400Z,5.00
2023-03-13T10:57:35.068Z,6.70
2023-03-13T11:00:23.614Z,4.85
2023-03-13T11:02:50.198Z,4.45
2023-03-13T11:05:28.850Z,5.22
2023-03-13T11:07:55.569Z,3.40
2023-03-13T11:10:32.454Z,3.47
2023-03-13T11:12:59.292Z,4.30
2023-03-13T11:15:31.421Z,5.70
2023-03-13T11:18:32.794Z,5.10
2023-03-13T11:21:12.144Z,3.80
2023-03-13T11:23:54.483Z,4.97
2023-03-13T11:27:01.932Z,4.63
2023-03-13T11:29:57.925Z,5.40
2023-03-13T11:32:36.486Z,5.38
2023-03-13T11:35:18.951Z,5.83
2023-03-13T11:37:46.264Z,1.88
2023-03-13T11:40:22.575Z,3.47
2023-03-13T11:43:25.546Z,5.65
2023-03-13T11:46:01.923Z,13.38
2023-03-13T11:48:49.831Z,3.63
2023-03-13T11:51:31.368Z,3.33
2023-03-13T11:54:11.921Z,5.07
2023-03-13T11:56:47.404Z,3.58
2023-03-13T11:59:21.618Z,3.47
2023-03-13T12:02:14.341Z,4.37
2023-03-13T12:04:46.640Z,2.70
2023-03-13T12:07:26.619Z,3.22
2023-03-13T12:10:01.453Z,4.50
2023-03-13T12:12:37.558Z,3.13
2023-03-13T12:15:28.052Z,3.30
2023-03-13T12:18:09.628Z,6.22
2023-03-13T12:20:38.945Z,3.97
2023-03-13T12:23:17.647Z,2.17
2023-03-13T12:26:00.310Z,7.10
2023-03-13T12:28:41.584Z,9.50
2023-03-13T12:31:20.657Z,7.60
2023-03-13T12:34:03.355Z,8.60
2023-03-13T12:36:35.873Z,6.18
2023-03-13T12:39:05.021Z,9.13
2023-03-13T12:41:41.902Z,7.13
2023-03-13T12:44:17.074Z,5.32
2023-03-13T12:46:54.817Z,8.07
2023-03-13T12:49:36.640Z,6.50
2023-03-13T12:52:37.867Z,8.82
2023-03-13T12:55:29.414Z,7.70
2023-03-13T12:58:26.372Z,7.60
2023-03-13T13:00:55.335Z,5.75
2023-03-13T13:03:33.543Z,8.75
2023-03-13T13:06:01.989Z,8.38
2023-03-13T13:08:33.702Z,9.27
2023-03-13T13:11:34.204Z,9.35
2023-03-13T13:14:18.884Z,6.40
2023-03-13T13:16:52.019Z,4.00
2023-03-13T13:19:24.162Z,5.45
2023-03-13T13:22:28.155Z,5.03
2023-03-13T13:24:59.187Z,12.23
2023-03-13T13:27:31.454Z,7.15
2023-03-13T13:30:00.412Z,7.03
2023-03-13T13:32:36.521Z,7.63
2023-03-13T13:35:18.048Z,11.20
2023-03-13T13:37:44.683Z,7.63
2023-03-13T13:40:26.712Z,9.10
2023-03-13T13:42:54.173Z,8.93
2023-03-13T13:45:25.714Z,12.85
2023-03-13T13:48:16.375Z,11.33
2023-03-13T13:51:18.829Z,15.48
2023-03-13T13:54:01.020Z,13.93
2023-03-13T13:56:36.735Z,8.85
2023-03-13T13:59:45.437Z,8.73
2023-03-13T14:02:31.863Z,10.57
2023-03-13T14:05:05.347Z,10.50
2023-03-13T14:08:11.128Z,9.95
2023-03-13T14:10:49.212Z,13.23
2023-03-13T14:13:21.425Z,13.90
2023-03-13T14:15:53.099Z,13.73
2023-03-13T14:18:28.125Z,16.98
2023-03-13T14:20:54.640Z,14.68
2023-03-13T14:23:42.253Z,12.70
2023-03-13T14:26:26.508Z,17.25
2023-03-13T14:28:54.698Z,13.17
2023-03-13T14:31:32.749Z,11.52
2023-03-13T14:34:17.593Z,14.55
2023-03-13T14:37:01.426Z,9.50
2023-03-13T14:39:33.961Z,11.57
2023-03-13T14:42:15.806Z,18.80
2023-03-13T14:44:46.468Z,12.90
2023-03-13T14:47:31.239Z,9.57
2023-03-13T14:50:05.426Z,13.93
2023-03-13T14:52:32.881Z,11.05
2023-03-13T14:55:03.933Z,14.97
2023-03-13T14:57:31.589Z,13.15
2023-03-13T15:00:35.869Z,11.82
2023-03-13T15:03:16.721Z,10.93
2023-03-13T15:05:44.045Z,11.95
2023-03-13T15:08:16.938Z,13.93
2023-03-13T15:10:43.704Z,13.45
2023-03-13T15:13:33.887Z,10.75
2023-03-13T15:16:01.046Z,19.17
2023-03-13T15:18:33.237Z,15.55
2023-03-13T15:21:28.006Z,19.47
2023-03-13T15:23:59.827Z,13.10
2023-03-13T15:26:27.024Z,11.88
2023-03-13T15:28:53.592Z,12.52
2023-03-13T15:31:23.040Z,12.07
2023-03-13T15:33:55.838Z,15.03
2023-03-13T15:36:22.400Z,13.35
2023-03-13T15:38:49.947Z,10.98
2023-03-13T15:41:16.432Z,16.65
2023-03-13T15:43:43.191Z,16.55
2023-03-13T15:46:15.931Z,13.97
2023-03-13T15:48:42.511Z,13.95
2023-03-13T15:51:11.947Z,17.75
2023-03-13T15:53:38.405Z,9.70
2023-03-13T15:56:33.979Z,9.68
2023-03-13T15:59:00.943Z,10.67
2023-03-13T16:01:28.544Z,12.55
2023-03-13T16:03:55.076Z,13.23
2023-03-13T16:06:30.750Z,11.63
2023-03-13T16:09:00.227Z,10.13
2023-03-13T16:11:27.931Z,8.40
2023-03-13T16:13:54.496Z,15.23
2023-03-13T16:16:29.462Z,12.10
2023-03-13T16:18:57.822Z,9.95
2023-03-13T16:21:30.152Z,13.20
2023-03-13T16:23:56.728Z,17.67
2023-03-13T16:26:25.310Z,16.02
2023-03-13T16:28:53.670Z,15.27
2023-03-13T16:31:23.169Z,14.65
2023-03-13T16:33:53.296Z,16.33
2023-03-13T16:36:29.400Z,14.93
2023-03-13T16:38:55.925Z,13.20
2023-03-13T16:41:24.999Z,16.23
2023-03-13T16:43:51.510Z,18.38
2023-03-13T16:46:27.210Z,16.48
2023-03-13T16:48:53.883Z,16.70
2023-03-13T16:51:22.964Z,12.77
2023-03-13T16:53:51.471Z,21.00
2023-03-13T16:56:39.423Z,22.58
2023-03-13T16:59:18.207Z,21.20
2023-03-13T17:01:47.165Z,15.67
2023-03-13T17:04:13.759Z,14.45
2023-03-13T17:06:42.518Z,16.27
2023-03-13T17:09:15.241Z,18.20
2023-03-13T17:11:45.395Z,21.50
2023-03-13T17:14:13.302Z,17.97
2023-03-13T17:16:43.723Z,23.02
2023-03-13T17:19:13.977Z,17.63
2023-03-13T17:21:41.518Z,20.02
2023-03-13T17:24:08.433Z,10.18
2023-03-13T17:26:37.454Z,22.70
2023-03-13T17:29:05.193Z,13.88
2023-03-13T17:31:37.272Z,11.63
2023-03-13T17:34:07.003Z,13.27
2023-03-13T17:36:34.152Z,22.40
2023-03-13T17:39:03.061Z,20.80
2023-03-13T17:41:32.124Z,20.38
2023-03-13T17:43:59.589Z,16.25
2023-03-13T17:46:45.393Z,14.93
2023-03-13T17:49:13.364Z,22.42
2023-03-13T17:51:41.516Z,17.83
2023-03-13T17:54:09.030Z,17.80
2023-03-13T17:56:38.939Z,18.75
2023-03-13T17:59:17.476Z,24.92
2023-03-13T18:01:44.754Z,20.63
2023-03-13T18:04:12.078Z,24.77
2023-03-13T18:06:45.175Z,21.38
2023-03-13T18:09:15.212Z,15.43
2023-03-13T18:11:42.048Z,20.88
2023-03-13T18:14:08.617Z,21.38
2023-03-13T18:16:47.774Z,20.23
2023-03-13T18:19:22.367Z,23.95
2023-03-13T18:21:52.969Z,22.58
2023-03-13T18:24:19.948Z,22.30
2023-03-13T18:26:47.788Z,29.23
2023-03-13T18:29:26.707Z,21.07
2023-03-13T18:31:56.824Z,19.05
2023-03-13T18:34:23.784Z,31.35
2023-03-13T18:36:51.335Z,19.80
2023-03-13T18:39:19.156Z,20.33
2023-03-13T18:41:46.398Z,18.63
2023-03-13T18:44:15.957Z,21.98
2023-03-13T18:46:43.755Z,14.40
2023-03-13T18:49:17.149Z,19.08
2023-03-13T18:51:44.779Z,23.17
2023-03-13T18:54:11.524Z,14.70
2023-03-13T18:56:38.588Z,22.52
2023-03-13T18:59:06.646Z,23.63
2023-03-13T19:01:33.186Z,22.20
2023-03-13T19:04:00.792Z,21.73
2023-03-13T19:06:32.907Z,17.00
2023-03-13T19:09:37.822Z,18.13
2023-03-13T19:11:58.266Z,25.48
2023-03-13T19:14:24.778Z,18.00
2023-03-13T19:16:57.606Z,26.98
2023-03-13T19:19:25.533Z,18.80
2023-03-13T19:21:56.289Z,17.60
2023-03-13T19:24:26.550Z,18.50
2023-03-13T19:26:58.470Z,19.45
2023-03-13T19:29:27.545Z,23.95
2023-03-13T19:31:59.198Z,22.17
2023-03-13T19:34:25.694Z,13.52
2023-03-13T19:36:53.399Z,13.38
2023-03-13T19:39:25.374Z,17.35
2023-03-13T19:41:53.143Z,17.60
2023-03-13T19:44:20.836Z,18.63
2023-03-13T19:46:48.189Z,25.13
2023-03-13T19:49:17.918Z,17.10
2023-03-13T19:51:45.117Z,15.98
2023-03-13T19:54:12.237Z,19.80
2023-03-13T19:56:44.299Z,20.90
2023-03-13T19:59:15.962Z,16.13
2023-03-13T20:01:45.246Z,18.35
2023-03-13T20:04:11.845Z,12.27
2023-03-13T20:06:39.640Z,22.88
2023-03-13T20:09:11.739Z,21.57
2023-03-13T20:11:39.033Z,19.15
2023-03-13T20:14:06.763Z,20.98
2023-03-13T20:16:35.069Z,24.42
2023-03-13T20:19:01.876Z,24.48
2023-03-13T20:21:40.446Z,24.20
2023-03-13T20:24:09.578Z,18.35
2023-03-13T20:26:36.393Z,19.65
2023-03-13T20:29:03.011Z,12.82
2023-03-13T20:31:31.566Z,15.93
2023-03-13T20:33:59.088Z,19.30
2023-03-13T20:36:32.653Z,17.85
2023-03-13T20:38:59.111Z,20.73
2023-03-13T20:41:30.950Z,18.50
2023-03-13T20:43:57.482Z,17.88
2023-03-13T20:46:24.027Z,22.43
2023-03-13T20:48:52.273Z,25.27
2023-03-13T20:51:19.512Z,22.27
2023-03-13T20:53:46.043Z,15.80
2023-03-13T20:56:12.576Z,20.83
2023-03-13T20:58:39.434Z,18.87
2023-03-13T21:01:07.492Z,16.77
2023-03-13T21:03:35.753Z,16.33
2023-03-13T21:06:13.990Z,20.35
2023-03-13T21:08:41.150Z,20.05
2023-03-13T21:11:16.428Z,20.40
2023-03-13T21:13:43.082Z,25.35
2023-03-13T21:16:10.194Z,20.20
2023-03-13T21:18:36.941Z,17.92
2023-03-13T21:21:05.676Z,23.70
2023-03-13T21:23:33.039Z,23.00
2023-03-13T21:26:00.568Z,24.88
2023-03-13T21:28:28.173Z,18.25
2023-03-13T21:30:55.387Z,15.27
2023-03-13T21:33:22.179Z,17.33
2023-03-13T21:35:50.067Z,24.50
2023-03-13T21:38:17.328Z,23.70
2023-03-13T21:40:44.082Z,17.45
2023-03-13T21:43:10.552Z,18.15
2023-03-13T21:45:36.948Z,20.20
2023-03-13T21:48:03.565Z,15.10
2023-03-13T21:50:30.071Z,11.00
2023-03-13T21:52:56.601Z,17.23
2023-03-13T21:55:23.009Z,17.17
2023-03-13T21:57:49.449Z,14.50
2023-03-13T22:00:16.258Z,16.80
2023-03-13T22:02:44.147Z,14.48
2023-03-13T22:05:10.857Z,19.13
2023-03-13T22:07:37.272Z,18.95
2023-03-13T22:10:04.005Z,13.27
2023-03-13T22:12:30.418Z,15.20
2023-03-13T22:14:57.842Z,19.27
2023-03-13T22:17:24.446Z,12.40
2023-03-13T22:19:50.918Z,21.70
2023-03-13T22:22:19.832Z,21.33
2023-03-13T22:24:46.433Z,17.37
2023-03-13T22:27:12.925Z,14.95
2023-03-13T22:29:39.586Z,16.38
2023-03-13T22:32:06.098Z,17.33
2023-03-13T22:34:32.787Z,17.88
2023-03-13T22:36:59.208Z,17.23
2023-03-13T22:39:25.718Z,19.67
2023-03-13T22:41:52.200Z,15.27
2023-03-13T22:44:18.772Z,14.98
2023-03-13T22:46:45.206Z,11.65
2023-03-13T22:49:11.705Z,15.20
2023-03-13T22:51:38.091Z,14.75
2023-03-13T22:54:09.086Z,17.00
2023-03-13T22:56:35.493Z,16.63
2023-03-13T22:59:03.036Z,16.58
2023-03-13T23:01:29.899Z,17.53
2023-03-13T23:03:56.529Z,15.73
2023-03-13T23:06:25.110Z,16.63
2023-03-13T23:08:52.443Z,16.58
2023-03-13T23:11:20.176Z,16.92
2023-03-13T23:13:46.981Z,17.47
2023-03-13T23:16:13.609Z,15.68
2023-03-13T23:18:40.127Z,13.38
2023-03-13T23:21:12.676Z,17.23
2023-03-13T23:23:40.232Z,14.32
2023-03-13T23:26:12.656Z,22.20
2023-03-13T23:28:39.642Z,12.77
2023-03-13T23:31:15.313Z,16.88
2023-03-13T23:33:41.875Z,21.00
2023-03-13T23:36:11.946Z,11.63
2023-03-13T23:38:38.464Z,15.07
2023-03-13T23:41:12.830Z,11.75
2023-03-13T23:43:41.525Z,17.42
2023-03-13T23:46:17.157Z,16.65
2023-03-13T23:48:43.695Z,14.05
2023-03-13T23:51:10.334Z,12.40
2023-03-13T23:53:38.154Z,17.48
2023-03-13T23:56:04.804Z,16.80
2023-03-13T23:58:31.225Z,15.68
